Nearby METAR Reports

 

KFRG - , , USA
Distance from station: SSW 12mi, 20km
Updated: 10/25/2020 8:53am
Clear
Clear
 Wind from NNE
Wind: NNE 7 mph , 11 km/h
Temperature: 46°F , 8°C
Wind Chill: 42°F , 6°C
Dew Point: 37°F , 3°C
Humidity: 71%
Barometer: 30.24 inHg , 1024 hPa
Clouds: Clear
Visibility: 10 miles , 16 km
2020/10/25 12:53 KFRG 251253Z 03006KT 10SM CLR 08/03 A3024 RMK AO2 SLP240 T00780028
KISP - , , USA
Distance from station: ESE 14mi, 23km
Updated: 10/25/2020 8:56am
Mostly cloudy
Mostly cloudy
 Wind from NNE
Wind: NNE 9 mph , 15 km/h
Temperature: 46°F , 8°C
Wind Chill: 41°F , 5°C
Dew Point: 36°F , 2°C
Humidity: 66%
Barometer: 30.23 inHg , 1023.7 hPa
Clouds: Mostly cloudy
Visibility: 10 miles , 16 km
Cloud details: Few Clouds 4000 ft
Partly cloudy 12000 ft
Mostly cloudy 23000 ft
2020/10/25 12:56 KISP 251256Z 03008KT 10SM FEW040 SCT120 BKN230 08/02 A3023 RMK SLP237 T00780022 $
 
KBDR - , , USA
Distance from station: NNE 21mi, 34km
Updated: 10/25/2020 8:52am
Clear
Clear
 Wind from N
Wind: N 8 mph , 13 km/h
Temperature: 45°F , 7°C
Wind Chill: 41°F , 5°C
Dew Point: 36°F , 2°C
Humidity: 71%
Barometer: 30.25 inHg , 1024.4 hPa
Clouds: Clear
Visibility: 10 miles , 16 km
2020/10/25 12:52 KBDR 251252Z 36007KT 10SM CLR 07/02 A3025 RMK AO2 SLP243 T00720017
KHPN - , , USA
Distance from station: WNW 22mi, 35km
Updated: 10/25/2020 8:56am
Clear
Clear
 Wind from N
Wind: N 5 mph , 7 km/h
Temperature: 43°F , 6°C
Wind Chill: 40°F , 4°C
Dew Point: 32°F , 0°C
Humidity: 66%
Barometer: 30.23 inHg , 1023.7 hPa
Clouds: Clear
Visibility: 10 miles , 16 km
2020/10/25 12:56 KHPN 251256Z 01004KT 10SM CLR 06/00 A3023 RMK AO2 SLP241 T00610000 $
 
KHWV - , , USA
Distance from station: ESE 26mi, 41km
Updated: 10/25/2020 8:56am
Clear
Clear
 Wind from N
Wind: N 7 mph , 11 km/h
Temperature: 48°F , 9°C
Wind Chill: 45°F , 7°C
Dew Point: 34°F , 1°C
Humidity: 58%
Barometer: 30.23 inHg , 1023.7 hPa
Clouds: Clear
Visibility: 10 miles , 16 km
2020/10/25 12:56 KHWV 251256Z AUTO 01006KT 10SM CLR 09/01 A3023 RMK AO2 SLP238 T00890011
KJFK - , , USA
Distance from station: SW 29mi, 46km
Updated: 10/25/2020 8:51am
Mostly cloudy
Mostly cloudy
 Wind from NNE
Wind: NNE 7 mph , 11 km/h
Temperature: 46°F , 8°C
Wind Chill: 42°F , 6°C
Dew Point: 36°F , 2°C
Humidity: 66%
Barometer: 30.26 inHg , 1024.7 hPa
Clouds: Mostly cloudy
Visibility: 10 miles , 16 km
Cloud details: Few Clouds 4000 ft
Partly cloudy 7000 ft
Mostly cloudy 21000 ft
2020/10/25 12:51 KJFK 251251Z 02006KT 10SM FEW040 SCT070 BKN210 08/02 A3026 RMK AO2 SLP245 T00780017 $
 
KLGA - , , USA
Distance from station: WSW 29mi, 47km
Updated: 10/25/2020 8:51am
Mostly cloudy
Mostly cloudy
 Wind from N
Wind: N 8 mph , 13 km/h
Temperature: 46°F , 8°C
Wind Chill: 42°F , 6°C
Dew Point: 32°F , 0°C
Humidity: 57%
Barometer: 30.25 inHg , 1024.4 hPa
Clouds: Mostly cloudy
Visibility: 10 miles , 16 km
Cloud details: Few Clouds 3300 ft
Partly cloudy 6000 ft
Partly cloudy 9000 ft
Mostly cloudy 21000 ft
Mostly cloudy 25000 ft
2020/10/25 12:51 KLGA 251251Z 01007KT 10SM FEW033 SCT060 SCT090 BKN210 BKN250 08/00 A3025 RMK AO2 SLP242 T00830000